Airfield :
LOGIN :

Register | Disclaimer

   EN    FR    IT 

 










Legend :    VFR   Marginal VFR   IFR   Intensive IFR   Very Intensive IFR
Visi :
Ceiling :
>= 8 km
>= 3000ft
5 to 8 km
1000 to 3000 ft
1500m to 5 km
500 to 1000 ft
800 to 1500m
200 to 500 ft
< 800m
< 200 ft
Symbols :   Thunderstorms  Fog  Heavy snow  Heavy precipitations  Wind > 20 kt
SIGMETs :     Misc.  Thunderstorms  Icing  Turbulence  Mountain Waves  Volcanic Ashes






- Airport Elevation : 465 ft
- IATA code : LEJ


EDDP - Leipzig Halle

CURRENT METAR :
  • 162320Z AUTO 18007KT CAVOK 17/12 Q1011 NOSIG

EXPIRED METARs :
  • 162250Z AUTO 20007KT CAVOK 16/12 Q1011
  • 162220Z AUTO 17006KT CAVOK 18/11 Q1011 NOSIG
  • 162150Z AUTO 19005KT 150V230 CAVOK 17/12 Q1011 NOSIG
  • 162120Z AUTO 18005KT 160V220 CAVOK 18/12 Q1011 NOSIG
  • 162050Z AUTO 16005KT 140V200 CAVOK 18/12 Q1010 NOSIG
  • 162020Z AUTO 20010KT 170V230 9999 FEW037 19/11 Q1010 NOSIG
  • 161950Z AUTO 21004KT 9999 FEW033 19/11 Q1010 NOSIG
  • 161920Z AUTO 18005KT 160V230 CAVOK 19/11 Q1010 NOSIG
  • 161850Z AUTO 21004KT 170V230 CAVOK 21/10 Q1009 NOSIG

TAF TAF EDDP
Valid from the 17 at 00:00 until the 18 at 00:00 UTC


162300Z 1700/1724 20006KT CAVOK
PROB30
TEMPO 1715/1719 23015G25KT TSRA SCT025CB



MET'MAP, your aeronautical weather chart ! - Copyright ORBIFLY December 2007 - Disclaimer

ORBIFLY MET'MAP TEAM :

Programming & Development : Alexandra Zaïnal
Original concept : Baudouin d'Aumeries
Technical & hardware support : Manuel Goepfert
Assistance : Marc-Olivier Méhu




SOURCES & CREDITS :

   NOAA